createdAt,value
2023-04-28T00:00:03.464Z,9.20
2023-04-28T00:02:32.923Z,9.20
2023-04-28T00:05:01.089Z,9.20
2023-04-28T00:07:29.287Z,9.20
2023-04-28T00:09:57.807Z,9.20
2023-04-28T00:12:25.858Z,9.10
2023-04-28T00:14:54.453Z,9.10
2023-04-28T00:17:22.767Z,9.20
2023-04-28T00:19:53.037Z,9.10
2023-04-28T00:22:20.945Z,9.10
2023-04-28T00:24:48.806Z,9.10
2023-04-28T00:27:16.760Z,9.10
2023-04-28T00:29:44.618Z,9.00
2023-04-28T00:32:13.630Z,9.10
2023-04-28T00:34:41.572Z,9.00
2023-04-28T00:37:10.959Z,9.00
2023-04-28T00:39:38.834Z,8.90
2023-04-28T00:42:06.809Z,8.90
2023-04-28T00:44:34.723Z,8.90
2023-04-28T00:47:02.981Z,8.80
2023-04-28T00:49:31.541Z,8.80
2023-04-28T00:52:03.621Z,8.80
2023-04-28T00:54:34.158Z,8.80
2023-04-28T00:57:04.802Z,8.80
2023-04-28T00:59:33.024Z,8.80
2023-04-28T01:02:01.899Z,8.80
2023-04-28T01:04:31.289Z,8.80
2023-04-28T01:07:01.796Z,8.80
2023-04-28T01:09:29.726Z,8.80
2023-04-28T01:11:59.015Z,8.80
2023-04-28T01:14:26.941Z,8.80
2023-04-28T01:16:55.189Z,8.80
2023-04-28T01:19:24.141Z,8.80
2023-04-28T01:21:52.410Z,8.70
2023-04-28T01:24:21.746Z,8.70
2023-04-28T01:26:49.603Z,8.70
2023-04-28T01:29:17.590Z,8.70
2023-04-28T01:31:45.560Z,8.70
2023-04-28T01:34:13.529Z,8.70
2023-04-28T01:36:41.663Z,8.70
2023-04-28T01:39:09.537Z,8.70
2023-04-28T01:41:38.746Z,8.70
2023-04-28T01:44:07.699Z,8.60
2023-04-28T01:46:36.494Z,8.60
2023-04-28T01:49:04.721Z,8.60
2023-04-28T01:51:32.781Z,8.60
2023-04-28T01:54:00.909Z,8.60
2023-04-28T01:56:28.784Z,8.60
2023-04-28T01:58:58.146Z,8.60
2023-04-28T02:01:26.081Z,8.60
2023-04-28T02:03:55.366Z,8.60
2023-04-28T02:06:23.568Z,8.60
2023-04-28T02:08:51.656Z,8.60
2023-04-28T02:11:19.583Z,8.60
2023-04-28T02:13:47.544Z,8.60
2023-04-28T02:16:17.037Z,8.60
2023-04-28T02:18:44.942Z,8.60
2023-04-28T02:21:13.436Z,8.60
2023-04-28T02:23:41.335Z,8.60
2023-04-28T02:26:09.344Z,8.60
2023-04-28T02:28:37.253Z,8.60
2023-04-28T02:31:06.555Z,8.60
2023-04-28T02:33:36.052Z,8.60
2023-04-28T02:36:05.029Z,8.50
2023-04-28T02:38:32.972Z,8.50
2023-04-28T02:41:01.047Z,8.50
2023-04-28T02:43:28.965Z,8.50
2023-04-28T02:45:57.201Z,8.50
2023-04-28T02:48:25.486Z,8.50
2023-04-28T02:50:54.957Z,8.50
2023-04-28T02:53:23.636Z,8.50
2023-04-28T02:55:51.544Z,8.50
2023-04-28T02:58:19.556Z,8.50
2023-04-28T03:00:47.928Z,8.50
2023-04-28T03:03:16.182Z,8.50
2023-04-28T03:05:44.305Z,8.40
2023-04-28T03:08:13.660Z,8.40
2023-04-28T03:10:41.628Z,8.40
2023-04-28T03:13:09.538Z,8.40
2023-04-28T03:15:37.454Z,8.30
2023-04-28T03:18:05.466Z,8.30
2023-04-28T03:20:33.359Z,8.30
2023-04-28T03:23:02.570Z,8.30
2023-04-28T03:25:31.964Z,8.30
2023-04-28T03:28:01.893Z,8.30
2023-04-28T03:30:29.859Z,8.30
2023-04-28T03:32:57.935Z,8.30
2023-04-28T03:35:25.894Z,8.30
2023-04-28T03:37:53.824Z,8.20
2023-04-28T03:40:22.038Z,8.20
2023-04-28T03:42:51.525Z,8.20
2023-04-28T03:45:19.460Z,8.20
2023-04-28T03:47:47.318Z,8.20
2023-04-28T03:50:15.242Z,8.20
2023-04-28T03:52:43.144Z,8.20
2023-04-28T03:55:11.568Z,8.20
2023-04-28T03:57:39.577Z,8.20
2023-04-28T04:00:10.406Z,8.20
2023-04-28T04:02:38.793Z,8.20
2023-04-28T04:05:07.350Z,8.20
2023-04-28T04:07:35.407Z,8.20
2023-04-28T04:10:04.651Z,8.20
2023-04-28T04:12:32.804Z,8.20
2023-04-28T04:15:00.689Z,8.20
2023-04-28T04:17:30.084Z,8.20
2023-04-28T04:19:58.065Z,8.20
2023-04-28T04:22:26.077Z,8.20
2023-04-28T04:24:53.981Z,8.20
2023-04-28T04:27:21.947Z,8.20
2023-04-28T04:29:49.855Z,8.20
2023-04-28T04:32:17.793Z,8.20
2023-04-28T04:34:47.110Z,8.20
2023-04-28T04:37:15.013Z,8.20
2023-04-28T04:39:42.906Z,8.20
2023-04-28T04:42:24.115Z,8.20
2023-04-28T04:44:53.150Z,8.20
2023-04-28T04:47:20.997Z,8.20
2023-04-28T04:49:51.040Z,8.20
2023-04-28T04:52:19.074Z,8.30
2023-04-28T04:54:47.201Z,8.30
2023-04-28T04:57:15.159Z,8.30
2023-04-28T04:59:43.038Z,8.30
2023-04-28T05:02:11.279Z,8.30
2023-04-28T05:04:39.530Z,8.40
2023-04-28T05:07:08.878Z,8.30
2023-04-28T05:09:36.777Z,8.30
2023-04-28T05:12:05.020Z,8.40
2023-04-28T05:14:32.932Z,8.40
2023-04-28T05:17:00.887Z,8.40
2023-04-28T05:19:28.749Z,8.40
2023-04-28T05:21:56.617Z,8.40
2023-04-28T05:24:26.197Z,8.40
2023-04-28T05:26:54.411Z,8.40
2023-04-28T05:29:22.503Z,8.50
2023-04-28T05:31:50.479Z,8.50
2023-04-28T05:34:18.677Z,8.50
2023-04-28T05:36:46.775Z,8.50
2023-04-28T05:39:14.742Z,8.60
2023-04-28T05:41:44.060Z,8.60
2023-04-28T05:44:12.202Z,8.60
2023-04-28T05:46:40.119Z,8.60
2023-04-28T05:49:08.129Z,8.70
2023-04-28T05:51:36.085Z,8.70
2023-04-28T05:54:04.068Z,8.80
2023-04-28T05:56:32.159Z,8.80
2023-04-28T05:59:04.195Z,8.70
2023-04-28T06:01:32.267Z,8.50
2023-04-28T06:04:00.707Z,8.30
2023-04-28T06:06:29.164Z,8.10
2023-04-28T06:08:57.309Z,7.90
2023-04-28T06:11:25.196Z,7.80
2023-04-28T06:13:53.098Z,7.80
2023-04-28T06:16:23.497Z,7.80
2023-04-28T06:18:51.865Z,7.80
2023-04-28T06:21:21.201Z,7.80
2023-04-28T06:23:49.064Z,7.90
2023-04-28T06:26:18.223Z,8.00
2023-04-28T06:28:46.585Z,8.20
2023-04-28T06:31:14.599Z,8.30
2023-04-28T06:33:44.107Z,8.40
2023-04-28T06:36:13.966Z,8.50
2023-04-28T06:38:43.074Z,8.50
2023-04-28T06:41:11.567Z,8.50
2023-04-28T06:43:39.652Z,8.50
2023-04-28T06:46:08.081Z,8.60
2023-04-28T06:48:36.161Z,8.60
2023-04-28T06:51:05.664Z,8.60
2023-04-28T06:53:33.681Z,8.70
2023-04-28T06:56:02.524Z,8.70
2023-04-28T06:58:30.473Z,8.80
2023-04-28T07:00:58.416Z,8.70
2023-04-28T07:03:27.723Z,8.70
2023-04-28T07:05:55.791Z,8.70
2023-04-28T07:08:25.117Z,8.70
2023-04-28T07:10:52.966Z,8.70
2023-04-28T07:13:20.863Z,8.80
2023-04-28T07:15:48.783Z,8.80
2023-04-28T07:18:16.910Z,8.80
2023-04-28T07:20:44.812Z,8.80
2023-04-28T07:23:12.716Z,8.90
2023-04-28T07:25:42.976Z,8.90
2023-04-28T07:28:11.172Z,8.80
2023-04-28T07:30:39.099Z,8.80
2023-04-28T07:33:07.105Z,8.90
2023-04-28T07:35:35.272Z,8.90
2023-04-28T07:38:03.849Z,8.90
2023-04-28T07:40:31.798Z,8.90
2023-04-28T07:43:01.144Z,9.00
2023-04-28T07:45:28.996Z,9.00
2023-04-28T07:47:56.926Z,9.10
2023-04-28T07:50:25.116Z,9.10
2023-04-28T07:52:53.356Z,9.20
2023-04-28T07:55:21.345Z,9.20
2023-04-28T07:57:49.509Z,9.30
2023-04-28T08:00:19.306Z,9.40
2023-04-28T08:02:47.423Z,9.40
2023-04-28T08:05:15.627Z,9.50
2023-04-28T08:07:44.080Z,9.50
2023-04-28T08:10:12.936Z,9.60
2023-04-28T08:12:41.780Z,9.60
2023-04-28T08:15:11.309Z,9.60
2023-04-28T08:17:40.652Z,9.70
2023-04-28T08:20:10.084Z,9.70
2023-04-28T08:22:38.006Z,9.80
2023-04-28T08:25:06.687Z,9.90
2023-04-28T08:27:37.929Z,9.90
2023-04-28T08:30:06.969Z,10.00
2023-04-28T08:32:35.005Z,10.10
2023-04-28T08:35:04.839Z,10.20
2023-04-28T08:37:32.985Z,10.30
2023-04-28T08:40:07.628Z,10.40
2023-04-28T08:42:37.115Z,10.40
2023-04-28T08:45:06.101Z,10.40
2023-04-28T08:47:36.869Z,10.50
2023-04-28T08:50:08.534Z,10.60
2023-04-28T08:52:37.421Z,10.70
2023-04-28T08:55:09.536Z,10.80
2023-04-28T08:57:41.423Z,10.80
2023-04-28T09:00:10.529Z,10.90
2023-04-28T09:02:42.673Z,11.00
2023-04-28T09:05:13.661Z,11.00
2023-04-28T09:07:42.399Z,11.10
2023-04-28T09:10:21.325Z,11.10
2023-04-28T09:12:52.107Z,11.10
2023-04-28T09:15:33.264Z,11.20
2023-04-28T09:18:02.823Z,11.20
2023-04-28T09:20:33.704Z,11.20
2023-04-28T09:23:16.314Z,11.20
2023-04-28T09:26:08.704Z,11.30
2023-04-28T09:28:37.394Z,11.30
2023-04-28T09:31:05.832Z,11.30
2023-04-28T09:33:33.850Z,11.30
2023-04-28T09:36:03.390Z,11.30
2023-04-28T09:38:31.371Z,11.40
2023-04-28T09:41:00.397Z,11.40
2023-04-28T09:43:30.619Z,11.50
2023-04-28T09:46:00.171Z,11.50
2023-04-28T09:48:29.812Z,11.50
2023-04-28T09:50:59.155Z,11.60
2023-04-28T09:53:28.973Z,11.60
2023-04-28T09:55:58.410Z,11.60
2023-04-28T09:58:28.019Z,11.70
2023-04-28T10:00:58.069Z,11.70
2023-04-28T10:03:29.347Z,11.80
2023-04-28T10:05:58.802Z,11.80
2023-04-28T10:08:29.554Z,11.90
2023-04-28T10:10:58.512Z,12.00
2023-04-28T10:13:26.527Z,12.00
2023-04-28T10:15:55.936Z,12.10
2023-04-28T10:18:25.090Z,12.10
2023-04-28T10:20:58.571Z,12.10
2023-04-28T10:23:54.046Z,12.10
2023-04-28T10:26:23.771Z,12.10
2023-04-28T10:28:53.435Z,12.10
2023-04-28T10:31:22.900Z,12.10
2023-04-28T10:33:51.452Z,12.10
2023-04-28T10:36:50.852Z,12.10
2023-04-28T10:39:20.232Z,12.10
2023-04-28T10:41:49.302Z,12.10
2023-04-28T10:44:42.682Z,12.20
2023-04-28T10:47:11.568Z,12.20
2023-04-28T10:50:11.572Z,12.20
2023-04-28T10:52:52.212Z,12.20
2023-04-28T10:55:36.595Z,12.20
2023-04-28T10:58:33.520Z,12.30
2023-04-28T11:01:26.441Z,12.30
2023-04-28T11:04:00.561Z,12.30
2023-04-28T11:06:32.028Z,12.40
2023-04-28T11:09:02.254Z,12.40
2023-04-28T11:11:33.544Z,12.40
2023-04-28T11:14:33.005Z,12.50
2023-04-28T11:17:02.972Z,12.60
2023-04-28T11:19:33.098Z,12.60
2023-04-28T11:22:03.014Z,12.60
2023-04-28T11:24:32.301Z,12.70
2023-04-28T11:27:02.304Z,12.70
2023-04-28T11:29:35.095Z,12.70
2023-04-28T11:32:03.592Z,12.80
2023-04-28T11:34:31.918Z,12.80
2023-04-28T11:37:00.164Z,12.80
2023-04-28T11:39:29.713Z,12.80
2023-04-28T11:41:58.522Z,12.90
2023-04-28T11:44:30.378Z,13.00
2023-04-28T11:47:01.532Z,13.00
2023-04-28T11:49:31.479Z,12.90
2023-04-28T11:52:05.674Z,12.90
2023-04-28T11:54:33.992Z,12.90
2023-04-28T11:57:04.164Z,12.90
2023-04-28T11:59:35.586Z,13.00
2023-04-28T12:02:04.679Z,12.90
2023-04-28T12:04:36.325Z,12.90
2023-04-28T12:07:06.294Z,12.90
2023-04-28T12:09:35.274Z,13.00
2023-04-28T12:12:04.932Z,13.00
2023-04-28T12:14:54.959Z,13.00
2023-04-28T12:17:27.039Z,13.00
2023-04-28T12:19:55.221Z,13.00
2023-04-28T12:22:23.450Z,13.10
2023-04-28T12:25:05.385Z,13.10
2023-04-28T12:27:33.315Z,13.20
2023-04-28T12:30:02.612Z,13.30
2023-04-28T12:32:41.421Z,13.40
2023-04-28T12:35:10.356Z,13.40
2023-04-28T12:37:39.932Z,13.40
2023-04-28T12:40:09.449Z,13.40
2023-04-28T12:42:37.607Z,13.40
2023-04-28T12:45:08.804Z,13.40
2023-04-28T12:47:37.700Z,13.50
2023-04-28T12:50:07.135Z,13.50
2023-04-28T12:52:35.978Z,13.60
2023-04-28T12:55:04.030Z,13.60
2023-04-28T12:57:32.231Z,13.60
2023-04-28T13:00:00.213Z,13.70
2023-04-28T13:02:29.738Z,13.70
2023-04-28T13:04:58.000Z,13.70
2023-04-28T13:07:25.989Z,13.70
2023-04-28T13:09:53.969Z,13.60
2023-04-28T13:12:21.901Z,13.60
2023-04-28T13:14:49.874Z,13.50
2023-04-28T13:17:18.068Z,13.50
2023-04-28T13:19:47.955Z,13.40
2023-04-28T13:22:16.662Z,13.40
2023-04-28T13:24:44.724Z,13.40
2023-04-28T13:27:12.804Z,13.40
2023-04-28T13:29:41.230Z,13.40
2023-04-28T13:32:09.296Z,13.40
2023-04-28T13:34:38.211Z,13.40
2023-04-28T13:37:07.505Z,13.40
2023-04-28T13:39:35.497Z,13.40
2023-04-28T13:42:03.882Z,13.40
2023-04-28T13:44:31.820Z,13.40
2023-04-28T13:46:59.752Z,13.40
2023-04-28T13:49:28.091Z,13.40
2023-04-28T13:51:56.306Z,13.30
2023-04-28T13:54:25.727Z,13.20
2023-04-28T13:56:53.624Z,13.20
2023-04-28T13:59:21.523Z,13.10
2023-04-28T14:01:49.586Z,13.10
2023-04-28T14:04:17.885Z,13.10
2023-04-28T14:06:45.969Z,13.20
2023-04-28T14:09:14.048Z,13.20
2023-04-28T14:11:43.276Z,13.20
2023-04-28T14:14:11.236Z,13.20
2023-04-28T14:16:39.182Z,13.20
2023-04-28T14:19:07.256Z,13.20
2023-04-28T14:21:35.183Z,13.10
2023-04-28T14:24:03.177Z,13.10
2023-04-28T14:26:31.259Z,13.00
2023-04-28T14:29:01.055Z,13.00
2023-04-28T14:31:29.449Z,13.00
2023-04-28T14:33:57.468Z,13.00
2023-04-28T14:36:25.452Z,13.00
2023-04-28T14:38:53.258Z,13.00
2023-04-28T14:41:21.212Z,13.00
2023-04-28T14:43:49.195Z,13.00
2023-04-28T14:46:22.818Z,13.00
2023-04-28T14:48:51.262Z,12.90
2023-04-28T14:51:19.914Z,12.90
2023-04-28T14:53:48.799Z,13.00
2023-04-28T14:56:18.641Z,13.00
2023-04-28T14:58:47.613Z,13.10
2023-04-28T15:01:16.023Z,13.10
2023-04-28T15:03:45.857Z,13.10
2023-04-28T15:06:14.247Z,13.10
2023-04-28T15:08:42.146Z,13.10
2023-04-28T15:11:10.228Z,13.10
2023-04-28T15:13:38.564Z,13.20
2023-04-28T15:16:08.044Z,13.20
2023-04-28T15:18:36.053Z,13.20
2023-04-28T15:21:05.516Z,13.30
2023-04-28T15:23:33.419Z,13.20
2023-04-28T15:26:01.362Z,13.20
2023-04-28T15:28:29.287Z,13.20
2023-04-28T15:30:57.175Z,13.20
2023-04-28T15:33:25.421Z,13.20
2023-04-28T15:35:53.463Z,13.20
2023-04-28T15:38:22.904Z,13.10
2023-04-28T15:40:50.773Z,13.10
2023-04-28T15:43:18.645Z,13.10
2023-04-28T15:45:47.479Z,13.10
2023-04-28T15:48:16.233Z,13.10
2023-04-28T15:50:44.403Z,13.10
2023-04-28T15:53:12.325Z,13.00
2023-04-28T15:55:41.610Z,13.00
2023-04-28T15:58:10.760Z,13.00
2023-04-28T16:00:40.476Z,13.00
2023-04-28T16:03:08.681Z,12.90
2023-04-28T16:05:36.714Z,12.90
2023-04-28T16:08:04.670Z,12.80
2023-04-28T16:10:32.636Z,12.80
2023-04-28T16:13:01.964Z,12.80
2023-04-28T16:15:29.979Z,12.70
2023-04-28T16:17:58.013Z,12.70
2023-04-28T16:20:25.956Z,12.70
2023-04-28T16:22:54.202Z,12.70
2023-04-28T16:25:22.409Z,12.60
2023-04-28T16:27:50.415Z,12.70
2023-04-28T16:30:20.833Z,12.70
2023-04-28T16:32:48.770Z,12.60
2023-04-28T16:35:16.718Z,12.60
2023-04-28T16:37:44.665Z,12.60
2023-04-28T16:40:13.815Z,12.50
2023-04-28T16:42:42.106Z,12.50
2023-04-28T16:45:11.346Z,12.50
2023-04-28T16:47:42.417Z,12.50
2023-04-28T16:50:11.429Z,12.50
2023-04-28T16:52:39.409Z,12.50
2023-04-28T16:55:08.547Z,12.50
2023-04-28T16:57:36.408Z,12.40
2023-04-28T17:00:04.958Z,12.50
2023-04-28T17:02:33.386Z,12.50
2023-04-28T17:05:02.764Z,12.50
2023-04-28T17:07:31.145Z,12.50
2023-04-28T17:09:59.143Z,12.50
2023-04-28T17:12:27.152Z,12.50
2023-04-28T17:14:55.123Z,12.50
2023-04-28T17:17:23.027Z,12.50
2023-04-28T17:19:51.168Z,12.50
2023-04-28T17:22:20.611Z,12.50
2023-04-28T17:24:48.568Z,12.50
2023-04-28T17:27:16.558Z,12.50
2023-04-28T17:29:44.536Z,12.50
2023-04-28T17:32:12.467Z,12.50
2023-04-28T17:34:41.082Z,12.50
2023-04-28T17:37:09.080Z,12.60
2023-04-28T17:39:38.780Z,12.60
2023-04-28T17:42:07.103Z,12.60
2023-04-28T17:44:35.634Z,12.50
2023-04-28T17:47:03.846Z,12.60
2023-04-28T17:49:31.803Z,12.60
2023-04-28T17:51:59.681Z,12.50
2023-04-28T17:54:27.864Z,12.50
2023-04-28T17:56:57.092Z,12.50
2023-04-28T17:59:25.029Z,12.40
2023-04-28T18:01:56.144Z,12.40
2023-04-28T18:04:24.239Z,12.40
2023-04-28T18:06:52.142Z,12.40
2023-04-28T18:09:20.077Z,12.40
2023-04-28T18:11:48.161Z,12.40
2023-04-28T18:14:18.438Z,12.40
2023-04-28T18:16:46.610Z,12.40
2023-04-28T18:19:14.614Z,12.40
2023-04-28T18:21:42.587Z,12.40
2023-04-28T18:24:10.560Z,12.30
2023-04-28T18:26:38.448Z,12.20
2023-04-28T18:29:06.455Z,12.20
2023-04-28T18:31:35.730Z,12.20
2023-04-28T18:34:05.298Z,12.10
2023-04-28T18:36:34.832Z,12.10
2023-04-28T18:39:03.687Z,12.10
2023-04-28T18:41:33.727Z,12.10
2023-04-28T18:44:02.124Z,12.10
2023-04-28T18:46:30.271Z,12.00
2023-04-28T18:48:59.543Z,11.90
2023-04-28T18:51:27.442Z,11.90
2023-04-28T18:53:55.821Z,11.80
2023-04-28T18:56:24.519Z,11.70
2023-04-28T18:58:52.471Z,11.70
2023-04-28T19:01:20.672Z,11.70
2023-04-28T19:03:49.867Z,11.70
2023-04-28T19:06:19.782Z,11.60
2023-04-28T19:08:47.989Z,11.60
2023-04-28T19:11:16.068Z,11.60
2023-04-28T19:13:44.984Z,11.50
2023-04-28T19:16:12.999Z,11.50
2023-04-28T19:18:42.110Z,11.50
2023-04-28T19:21:12.109Z,11.40
2023-04-28T19:23:41.709Z,11.40
2023-04-28T19:26:10.518Z,11.40
2023-04-28T19:28:38.517Z,11.40
2023-04-28T19:31:06.518Z,11.40
2023-04-28T19:33:34.530Z,11.40
2023-04-28T19:36:03.341Z,11.40
2023-04-28T19:38:31.613Z,11.40
2023-04-28T19:41:04.066Z,11.30
2023-04-28T19:43:31.928Z,11.30
2023-04-28T19:45:59.899Z,11.20
2023-04-28T19:48:27.839Z,11.20
2023-04-28T19:50:56.409Z,11.10
2023-04-28T19:53:24.296Z,11.10
2023-04-28T19:55:52.238Z,11.10
2023-04-28T19:58:22.170Z,11.10
2023-04-28T20:00:50.113Z,11.10
2023-04-28T20:03:18.164Z,11.10
2023-04-28T20:05:46.090Z,11.10
2023-04-28T20:08:14.057Z,11.10
2023-04-28T20:10:42.360Z,11.10
2023-04-28T20:13:10.396Z,11.00
2023-04-28T20:15:40.087Z,11.00
2023-04-28T20:18:08.097Z,11.00
2023-04-28T20:20:36.050Z,11.00
2023-04-28T20:23:03.973Z,11.00
2023-04-28T20:25:31.994Z,11.00
2023-04-28T20:27:59.934Z,10.90
2023-04-28T20:30:28.250Z,10.90
2023-04-28T20:32:57.597Z,10.90
2023-04-28T20:35:25.557Z,10.80
2023-04-28T20:37:53.896Z,10.80
2023-04-28T20:40:22.862Z,10.80
2023-04-28T20:42:50.761Z,10.70
2023-04-28T20:45:19.900Z,10.70
2023-04-28T20:47:47.879Z,10.70
2023-04-28T20:50:17.352Z,10.70
2023-04-28T20:52:45.648Z,10.70
2023-04-28T20:55:13.601Z,10.70
2023-04-28T20:57:41.510Z,10.60
2023-04-28T21:00:11.339Z,10.60
2023-04-28T21:02:39.478Z,10.60
2023-04-28T21:05:08.402Z,10.60
2023-04-28T21:07:37.654Z,10.60
2023-04-28T21:10:06.345Z,10.60
2023-04-28T21:12:34.235Z,10.60
2023-04-28T21:15:02.351Z,10.60
2023-04-28T21:17:30.355Z,10.60
2023-04-28T21:19:58.291Z,10.60
2023-04-28T21:22:27.697Z,10.50
2023-04-28T21:24:57.338Z,10.50
2023-04-28T21:27:25.578Z,10.50
2023-04-28T21:29:53.720Z,10.60
2023-04-28T21:32:21.775Z,10.60
2023-04-28T21:34:49.841Z,10.60
2023-04-28T21:37:18.176Z,10.60
2023-04-28T21:39:46.056Z,10.60
2023-04-28T21:42:15.397Z,10.60
2023-04-28T21:44:43.357Z,10.50
2023-04-28T21:47:11.319Z,10.50
2023-04-28T21:49:39.904Z,10.60
2023-04-28T21:52:07.767Z,10.60
2023-04-28T21:54:35.777Z,10.60
2023-04-28T21:57:03.718Z,10.50
2023-04-28T21:59:33.295Z,10.60
2023-04-28T22:02:02.021Z,10.50
2023-04-28T22:04:30.675Z,10.50
2023-04-28T22:06:58.678Z,10.60
2023-04-28T22:09:27.272Z,10.50
2023-04-28T22:11:55.192Z,10.60
2023-04-28T22:14:39.380Z,10.60
2023-04-28T22:17:10.586Z,10.60
2023-04-28T22:19:38.503Z,10.50
2023-04-28T22:22:06.957Z,10.50
2023-04-28T22:24:35.116Z,10.50
2023-04-28T22:27:03.269Z,10.30
2023-04-28T22:29:31.230Z,10.30
2023-04-28T22:31:59.353Z,10.30
2023-04-28T22:34:28.866Z,10.40
2023-04-28T22:36:56.793Z,10.30
2023-04-28T22:39:26.776Z,10.30
2023-04-28T22:41:54.785Z,10.30
2023-04-28T22:44:22.728Z,10.20
2023-04-28T22:46:50.736Z,10.20
2023-04-28T22:49:24.355Z,10.20
2023-04-28T22:51:53.616Z,10.20
2023-04-28T22:54:21.643Z,10.10
2023-04-28T22:56:51.866Z,10.10
2023-04-28T22:59:22.122Z,10.10
2023-04-28T23:01:50.229Z,10.10
2023-04-28T23:04:20.281Z,10.00
2023-04-28T23:06:48.443Z,10.10
2023-04-28T23:09:17.753Z,10.00
2023-04-28T23:11:45.676Z,10.00
2023-04-28T23:14:13.586Z,10.00
2023-04-28T23:16:42.051Z,10.00
2023-04-28T23:19:10.009Z,10.00
2023-04-28T23:21:37.996Z,10.00
2023-04-28T23:24:07.353Z,10.00
2023-04-28T23:26:36.682Z,10.00
2023-04-28T23:29:04.666Z,10.00
2023-04-28T23:31:33.273Z,10.00
2023-04-28T23:34:02.263Z,10.00
2023-04-28T23:36:31.386Z,10.10
2023-04-28T23:38:59.220Z,10.00
2023-04-28T23:41:27.998Z,10.10
2023-04-28T23:43:57.317Z,10.00
2023-04-28T23:46:25.422Z,10.10
2023-04-28T23:48:53.651Z,10.00
2023-04-28T23:51:21.554Z,10.10
2023-04-28T23:53:49.580Z,10.10
2023-04-28T23:56:17.624Z,10.00
2023-04-28T23:58:45.594Z,10.00
